Time;durP1;ratioP1;P1;durP2;ratioP2;P2;SDS_P1;SDS_P2;PMS_P1;PMS_P2;Temp;Humidity;BMP_temperature;BMP_pressure;BME280_temperature;BME280_humidity;BME280_pressure;Samples;Min_cycle;Max_cycle;Signal;HPM_P1;HPM_P2
2020/12/01 08:58:14;;;;;;;10.07;1.47;;;8.80;99.90;;;;;;5022411;23;20862;-71
2020/12/01 09:00:58;;;;;;;9.47;1.30;;;8.80;99.90;;;;;;5033739;28;20666;-71
2020/12/01 09:03:24;;;;;;;10.90;1.93;;;8.90;99.90;;;;;;5034112;28;20531;-71
2020/12/01 09:05:51;;;;;;;12.53;2.10;;;8.80;99.90;;;;;;5025285;28;20406;-71
2020/12/01 09:11:20;;;;;;;11.30;1.60;;;8.90;99.90;;;;;;5011891;28;20725;-71
2020/12/01 09:13:58;;;;;;;5.83;1.20;;;9.00;99.90;;;;;;5014063;28;20233;-71
2020/12/01 09:16:34;;;;;;;8.27;1.00;;;8.90;99.90;;;;;;5014204;28;20209;-71
2020/12/01 09:22:04;;;;;;;5.03;1.40;;;8.90;99.90;;;;;;5003657;28;20552;-70
2020/12/01 09:24:30;;;;;;;6.57;1.23;;;8.80;99.90;;;;;;5013899;28;20222;-70
2020/12/01 09:27:01;;;;;;;11.30;1.37;;;8.90;99.90;;;;;;5013116;28;20221;-70
2020/12/01 09:29:29;;;;;;;8.63;1.10;;;8.90;99.90;;;;;;5013713;28;20209;-71
2020/12/01 09:31:55;;;;;;;4.17;0.70;;;8.90;99.90;;;;;;5013616;28;20209;-71
2020/12/01 09:34:22;;;;;;;12.33;1.03;;;8.90;99.90;;;;;;5013487;28;20222;-71
2020/12/01 09:36:48;;;;;;;4.27;0.70;;;8.80;99.90;;;;;;5013829;28;20213;-70
2020/12/01 09:39:14;;;;;;;5.33;0.70;;;8.80;99.90;;;;;;5013386;28;20665;-70
2020/12/01 09:41:48;;;;;;;6.97;0.70;;;8.80;99.90;;;;;;5013296;28;20209;-69
2020/12/01 09:44:31;;;;;;;10.97;1.23;;;8.80;99.90;;;;;;5013332;28;20237;-72
2020/12/01 09:47:02;;;;;;;7.33;1.00;;;8.90;99.90;;;;;;5013264;28;20271;-73
2020/12/01 09:49:28;;;;;;;5.33;0.60;;;9.00;99.90;;;;;;5020503;28;20671;-70
2020/12/01 09:51:59;;;;;;;7.03;0.77;;;9.10;99.90;;;;;;5033946;28;20209;-70
2020/12/01 09:54:31;;;;;;;11.87;1.10;;;9.10;99.90;;;;;;5017041;28;20226;-70
2020/12/01 09:57:01;;;;;;;4.87;0.60;;;9.10;99.90;;;;;;5033855;28;20284;-69
2020/12/01 09:59:41;;;;;;;9.33;0.80;;;9.20;99.90;;;;;;5025393;28;20221;-69
2020/12/01 10:05:09;;;;;;;9.23;0.90;;;9.30;99.90;;;;;;5029912;28;20245;-69
2020/12/01 10:13:04;;;;;;;5.97;0.60;;;9.40;99.90;;;;;;5017637;28;20279;-69
2020/12/01 10:16:32;;;;;;;3.63;0.70;;;9.40;99.90;;;;;;5013886;28;20232;-70
2020/12/01 10:27:39;;;;;;;5.63;0.70;;;9.30;99.90;;;;;;5016867;28;20216;-69
2020/12/01 10:35:35;;;;;;;5.43;0.90;;;9.10;99.90;;;;;;5033191;28;20251;-69
2020/12/01 10:38:02;;;;;;;6.97;0.70;;;9.00;99.90;;;;;;5025090;28;20206;-69
2020/12/01 10:40:29;;;;;;;3.80;0.57;;;9.00;99.90;;;;;;5026334;28;20213;-70
2020/12/01 10:42:56;;;;;;;6.17;1.03;;;9.10;99.90;;;;;;5016532;28;20210;-69
2020/12/01 10:45:25;;;;;;;7.80;1.03;;;9.00;99.90;;;;;;5016338;28;20224;-70
2020/12/01 10:47:51;;;;;;;8.87;0.70;;;9.00;99.90;;;;;;5028375;28;20232;-71
2020/12/01 10:50:21;;;;;;;4.20;0.80;;;9.10;99.90;;;;;;5021896;28;20208;-71
2020/12/01 10:52:48;;;;;;;5.10;0.67;;;9.00;99.90;;;;;;5018978;28;20664;-71
2020/12/01 10:55:16;;;;;;;6.27;0.90;;;9.10;99.90;;;;;;5014851;28;20232;-71
2020/12/01 10:57:42;;;;;;;3.77;0.90;;;9.10;99.90;;;;;;5017626;28;20221;-71
2020/12/01 11:00:10;;;;;;;6.50;1.10;;;9.10;99.90;;;;;;5027586;28;20202;-72
2020/12/01 11:02:36;;;;;;;8.83;1.00;;;9.10;99.90;;;;;;5022186;28;20213;-71
2020/12/01 11:05:06;;;;;;;4.20;0.60;;;9.10;99.90;;;;;;5020467;28;20592;-71
2020/12/01 11:07:33;;;;;;;9.07;0.80;;;9.20;99.90;;;;;;5028914;28;20233;-71
2020/12/01 11:10:00;;;;;;;7.50;1.27;;;9.20;99.90;;;;;;5012594;28;20747;-71
2020/12/01 11:12:26;;;;;;;6.87;0.80;;;9.20;99.90;;;;;;5014663;28;20572;-68
2020/12/01 11:14:52;;;;;;;9.10;1.10;;;9.40;99.90;;;;;;5022397;28;20233;-69
2020/12/01 11:17:18;;;;;;;4.20;0.77;;;9.40;99.90;;;;;;5032208;28;20284;-70
2020/12/01 11:19:44;;;;;;;6.30;1.47;;;9.50;99.90;;;;;;5029521;28;20659;-70
2020/12/01 11:22:13;;;;;;;1.60;0.40;;;9.60;99.90;;;;;;5031569;28;20205;-69
2020/12/01 11:24:39;;;;;;;7.40;0.97;;;9.60;99.90;;;;;;5024097;28;20236;-70
2020/12/01 11:27:06;;;;;;;6.27;1.10;;;9.60;99.90;;;;;;5014781;28;20217;-69
2020/12/01 11:29:33;;;;;;;5.90;1.00;;;9.70;99.90;;;;;;5025432;28;20201;-70
2020/12/01 11:31:59;;;;;;;7.67;1.27;;;9.80;99.90;;;;;;5016129;28;20580;-69
2020/12/01 11:34:25;;;;;;;5.30;0.83;;;9.90;99.90;;;;;;5028245;28;20248;-69
2020/12/01 11:36:54;;;;;;;6.27;0.90;;;9.90;99.90;;;;;;5014607;28;20214;-70
2020/12/01 11:39:20;;;;;;;5.07;0.60;;;9.90;99.90;;;;;;5020470;28;20205;-70
2020/12/01 11:41:46;;;;;;;2.67;0.60;;;10.00;99.90;;;;;;5014396;28;20208;-69
2020/12/01 11:44:13;;;;;;;8.43;0.60;;;10.00;99.90;;;;;;5013467;28;20232;-69
2020/12/01 11:46:40;;;;;;;6.00;0.80;;;10.20;99.90;;;;;;5016916;28;20234;-70
2020/12/01 11:49:06;;;;;;;4.07;0.83;;;10.20;99.90;;;;;;5019667;28;20209;-70
2020/12/01 11:51:34;;;;;;;3.50;0.60;;;10.10;99.90;;;;;;5021355;28;20204;-69
2020/12/01 11:54:00;;;;;;;5.23;0.70;;;10.30;99.90;;;;;;5018622;28;20726;-69
2020/12/01 11:56:29;;;;;;;6.60;0.60;;;10.30;99.90;;;;;;5028331;28;20319;-70
2020/12/01 11:58:55;;;;;;;6.00;0.63;;;10.40;99.90;;;;;;5016250;28;20221;-69
2020/12/01 12:01:22;;;;;;;6.93;0.60;;;10.30;99.90;;;;;;5031572;28;20205;-69
2020/12/01 12:03:48;;;;;;;3.90;0.87;;;10.40;99.90;;;;;;5031852;28;20229;-69
2020/12/01 12:06:16;;;;;;;4.27;1.07;;;10.30;99.90;;;;;;5029187;28;20236;-69
2020/12/01 12:08:43;;;;;;;5.83;1.00;;;10.40;99.90;;;;;;5014850;28;20228;-70
2020/12/01 12:11:09;;;;;;;5.43;0.80;;;10.30;99.90;;;;;;5026919;28;20220;-69
2020/12/01 12:13:35;;;;;;;3.30;0.73;;;10.30;99.90;;;;;;5020384;28;20255;-69
2020/12/01 12:16:01;;;;;;;4.50;0.90;;;10.40;99.90;;;;;;5029325;28;20204;-71
2020/12/01 12:18:28;;;;;;;4.73;0.80;;;10.40;99.90;;;;;;5020551;28;20546;-69
2020/12/01 12:20:55;;;;;;;8.10;0.60;;;10.40;99.90;;;;;;5014182;28;20209;-68
2020/12/01 12:23:21;;;;;;;5.13;0.60;;;10.50;99.90;;;;;;5027929;28;20213;-68
2020/12/01 12:25:47;;;;;;;5.13;0.50;;;10.60;99.90;;;;;;5010358;28;20244;-67
2020/12/01 12:28:13;;;;;;;3.97;0.80;;;10.60;99.90;;;;;;5015432;28;20220;-68
2020/12/01 12:30:40;;;;;;;5.73;0.90;;;10.60;99.90;;;;;;5020199;28;20204;-72
2020/12/01 12:33:07;;;;;;;3.07;0.50;;;10.50;99.90;;;;;;5020648;28;20225;-68
2020/12/01 12:35:34;;;;;;;4.87;0.87;;;10.60;99.90;;;;;;5016115;28;20232;-68
2020/12/01 12:38:00;;;;;;;2.33;0.50;;;10.70;99.90;;;;;;5018925;28;20235;-68
2020/12/01 12:40:26;;;;;;;6.27;0.90;;;10.60;99.90;;;;;;5013385;28;20572;-68
2020/12/01 12:42:52;;;;;;;3.53;0.73;;;10.60;99.90;;;;;;5011632;28;20210;-67
2020/12/01 12:45:18;;;;;;;11.57;1.43;;;10.70;99.90;;;;;;5024920;28;20234;-68
2020/12/01 12:47:45;;;;;;;3.93;0.77;;;10.60;99.90;;;;;;5014817;28;20221;-69
2020/12/01 12:50:11;;;;;;;5.63;0.97;;;10.60;99.90;;;;;;5016985;28;20213;-68
2020/12/01 12:52:38;;;;;;;5.03;0.80;;;10.60;99.90;;;;;;5015109;28;20205;-68
2020/12/01 12:55:05;;;;;;;2.73;0.60;;;10.60;99.90;;;;;;5026325;28;20235;-68
2020/12/01 12:57:31;;;;;;;10.03;0.80;;;10.60;99.90;;;;;;5022921;28;20316;-68
2020/12/01 12:59:57;;;;;;;7.47;0.80;;;10.70;99.90;;;;;;5021851;28;20212;-68
2020/12/01 13:02:24;;;;;;;2.80;0.63;;;10.60;99.90;;;;;;5015300;28;20202;-69
2020/12/01 13:04:50;;;;;;;2.97;0.47;;;10.80;99.90;;;;;;5023213;28;20710;-69
2020/12/01 13:07:16;;;;;;;9.37;1.20;;;10.80;99.90;;;;;;5020094;28;20212;-68
2020/12/01 13:09:43;;;;;;;7.40;0.70;;;10.80;99.90;;;;;;5017011;28;20210;-69
2020/12/01 13:12:09;;;;;;;1.37;0.60;;;10.90;99.90;;;;;;5015965;28;20575;-67
2020/12/01 13:14:36;;;;;;;4.10;0.60;;;11.00;99.90;;;;;;5019221;28;20583;-68
2020/12/01 13:17:02;;;;;;;6.50;0.90;;;11.00;99.90;;;;;;5026485;28;20223;-68
2020/12/01 13:19:28;;;;;;;6.07;0.80;;;11.00;99.90;;;;;;5026483;28;20215;-69
2020/12/01 13:21:54;;;;;;;14.53;1.17;;;10.80;99.90;;;;;;5019799;28;20209;-68
2020/12/01 13:24:20;;;;;;;3.70;0.80;;;10.80;99.90;;;;;;5014465;28;20229;-70
2020/12/01 13:26:50;;;;;;;4.33;0.50;;;10.80;99.90;;;;;;5014729;28;20252;-69
2020/12/01 13:29:16;;;;;;;3.33;0.53;;;10.80;99.90;;;;;;5014478;28;20210;-67
2020/12/01 13:31:42;;;;;;;8.93;1.67;;;10.80;99.90;;;;;;5014386;28;20580;-68
2020/12/01 13:34:09;;;;;;;8.13;0.90;;;10.80;99.90;;;;;;5014849;28;20218;-68
2020/12/01 13:36:35;;;;;;;9.03;0.70;;;10.80;99.90;;;;;;5014183;28;20202;-69
2020/12/01 13:39:01;;;;;;;7.83;0.70;;;10.80;99.90;;;;;;5014155;28;20206;-68
2020/12/01 13:41:27;;;;;;;7.30;0.87;;;10.70;99.90;;;;;;5014608;28;20206;-69
2020/12/01 13:43:54;;;;;;;5.97;1.17;;;10.70;99.90;;;;;;5014192;28;20585;-69
2020/12/01 13:46:21;;;;;;;4.60;0.67;;;10.90;99.90;;;;;;5014020;28;20241;-68
2020/12/01 13:48:47;;;;;;;4.37;0.90;;;10.80;99.90;;;;;;5014095;28;20232;-69
2020/12/01 13:51:13;;;;;;;4.27;0.63;;;10.70;99.90;;;;;;5014699;28;20217;-69
2020/12/01 13:53:39;;;;;;;7.00;0.80;;;10.70;99.90;;;;;;5016150;28;20228;-69
2020/12/01 13:56:06;;;;;;;6.57;0.83;;;10.70;99.90;;;;;;5016114;28;20210;-68
2020/12/01 13:58:33;;;;;;;4.43;0.90;;;10.80;99.90;;;;;;5018124;28;20214;-68
2020/12/01 14:01:00;;;;;;;4.53;0.90;;;10.80;99.90;;;;;;5016463;28;20213;-68
2020/12/01 14:03:26;;;;;;;6.57;0.77;;;10.90;99.90;;;;;;5031795;28;20696;-68
2020/12/01 14:05:53;;;;;;;3.83;0.63;;;10.90;99.90;;;;;;5033947;28;20229;-68
2020/12/01 14:08:19;;;;;;;7.87;0.87;;;11.00;99.90;;;;;;5021961;28;20212;-68
2020/12/01 14:10:46;;;;;;;3.23;1.00;;;11.00;99.90;;;;;;5015558;28;20229;-69
2020/12/01 14:13:12;;;;;;;4.37;1.00;;;11.00;99.90;;;;;;5028296;28;20256;-70
2020/12/01 14:15:38;;;;;;;3.00;0.50;;;11.00;99.90;;;;;;5017576;28;20595;-68
2020/12/01 14:18:05;;;;;;;3.80;0.70;;;11.00;99.90;;;;;;5026384;28;20206;-68
2020/12/01 14:20:32;;;;;;;7.50;0.77;;;11.00;99.90;;;;;;5013840;28;20613;-68
2020/12/01 14:22:58;;;;;;;2.23;0.60;;;10.90;99.90;;;;;;5015443;28;20210;-69
2020/12/01 14:25:24;;;;;;;3.47;0.87;;;10.90;99.90;;;;;;5015494;28;20229;-70
2020/12/01 14:27:51;;;;;;;5.67;1.03;;;10.80;99.90;;;;;;5033142;28;20227;-68
2020/12/01 14:30:20;;;;;;;4.57;1.00;;;10.80;99.90;;;;;;5030867;28;20212;-68
2020/12/01 14:32:46;;;;;;;5.43;1.50;;;10.80;99.90;;;;;;5020993;28;20210;-70
2020/12/01 14:35:16;;;;;;;6.93;1.17;;;10.80;99.90;;;;;;5015707;28;20265;-70
2020/12/01 14:37:42;;;;;;;8.77;0.80;;;10.80;99.90;;;;;;5014656;28;20213;-68
2020/12/01 14:40:09;;;;;;;3.77;0.57;;;10.90;99.90;;;;;;5017839;28;20207;-68
2020/12/01 14:42:36;;;;;;;8.43;0.97;;;10.80;99.90;;;;;;5031496;28;20265;-68
2020/12/01 14:45:06;;;;;;;3.03;1.33;;;10.80;99.90;;;;;;5019068;28;20726;-69
2020/12/01 14:48:07;;;;;;;4.50;0.90;;;10.80;99.90;;;;;;5012927;28;20206;-68
2020/12/01 14:51:14;;;;;;;5.23;0.60;;;10.80;99.90;;;;;;5013454;28;20232;-68
2020/12/01 14:53:49;;;;;;;2.43;0.43;;;10.80;99.90;;;;;;4995348;28;20229;-68
2020/12/01 14:56:29;;;;;;;5.87;1.10;;;10.80;99.90;;;;;;5030267;28;20219;-68
2020/12/01 14:59:08;;;;;;;4.77;0.97;;;10.70;99.90;;;;;;5027416;28;20223;-68
2020/12/01 15:01:46;;;;;;;4.40;0.60;;;10.80;99.90;;;;;;5019939;28;20205;-69
2020/12/01 15:04:44;;;;;;;8.53;2.00;;;10.80;99.90;;;;;;5027409;28;20597;-69
2020/12/01 15:07:32;;;;;;;3.87;0.60;;;10.90;99.90;;;;;;5013765;28;20237;-68
2020/12/01 15:10:14;;;;;;;4.20;0.60;;;10.90;99.90;;;;;;5011765;28;20564;-68
2020/12/01 15:12:43;;;;;;;8.00;0.83;;;10.90;99.90;;;;;;5014467;28;20213;-68
2020/12/01 15:15:17;;;;;;;8.07;0.80;;;10.80;99.90;;;;;;5012478;28;20226;-69
2020/12/01 15:17:44;;;;;;;7.37;0.70;;;10.70;99.90;;;;;;5012891;28;20232;-68
2020/12/01 15:20:14;;;;;;;9.37;1.20;;;10.50;99.90;;;;;;5014266;28;20657;-68
2020/12/01 15:22:48;;;;;;;10.17;1.03;;;10.30;99.90;;;;;;5015077;28;20580;-68
2020/12/01 15:25:18;;;;;;;5.07;1.23;;;10.30;99.90;;;;;;5023840;28;20225;-68
2020/12/01 15:27:44;;;;;;;6.53;0.97;;;10.10;99.90;;;;;;5019760;28;20208;-69
2020/12/01 15:30:15;;;;;;;3.97;1.13;;;10.10;99.90;;;;;;5025433;28;20207;-68
2020/12/01 15:32:41;;;;;;;4.20;0.83;;;10.00;99.90;;;;;;5016066;28;20699;-67
2020/12/01 15:35:18;;;;;;;6.73;1.40;;;10.10;99.90;;;;;;5015083;28;20236;-68
2020/12/01 15:37:47;;;;;;;6.27;0.90;;;10.10;99.90;;;;;;5022947;28;20217;-68
2020/12/01 15:40:36;;;;;;;8.67;0.80;;;10.10;99.90;;;;;;5011588;28;20206;-69
2020/12/01 15:43:03;;;;;;;4.17;0.83;;;10.10;99.90;;;;;;5012685;28;20202;-71
2020/12/01 15:45:32;;;;;;;5.13;1.10;;;10.10;99.90;;;;;;5025902;28;20236;-71
2020/12/01 15:47:58;;;;;;;2.80;0.57;;;10.20;99.90;;;;;;5011383;28;20220;-70
2020/12/01 15:50:24;;;;;;;6.77;1.00;;;10.30;99.90;;;;;;5010975;28;20206;-72
2020/12/01 15:52:59;;;;;;;12.00;0.80;;;10.40;99.90;;;;;;5011423;28;20214;-75
2020/12/01 15:55:42;;;;;;;2.10;0.60;;;10.30;99.90;;;;;;5011374;28;20235;-72
2020/12/01 15:58:46;;;;;;;4.07;0.60;;;10.20;99.90;;;;;;5010481;28;20588;-70
2020/12/01 16:01:27;;;;;;;8.93;0.90;;;10.30;99.90;;;;;;5010710;28;20595;-71
2020/12/01 16:04:25;;;;;;;4.60;1.13;;;10.30;99.90;;;;;;5011412;28;20229;-78
2020/12/01 16:07:08;;;;;;;2.83;0.73;;;10.30;99.90;;;;;;5015259;28;20237;-71
2020/12/01 16:10:01;;;;;;;10.13;1.00;;;10.30;99.90;;;;;;5013850;28;20209;-72
2020/12/01 16:12:49;;;;;;;5.57;1.17;;;10.30;99.90;;;;;;5011510;28;20221;-70
2020/12/01 16:15:30;;;;;;;6.40;0.90;;;10.30;99.90;;;;;;5024694;28;20227;-70
2020/12/01 16:18:00;;;;;;;6.27;0.87;;;10.30;99.90;;;;;;5011919;28;20228;-70
2020/12/01 16:20:32;;;;;;;7.00;1.67;;;10.20;99.90;;;;;;5019577;28;20223;-72
2020/12/01 16:22:59;;;;;;;5.20;0.77;;;10.10;99.90;;;;;;5035969;28;20201;-70
2020/12/01 16:25:26;;;;;;;8.60;0.70;;;10.00;99.90;;;;;;5029314;28;20230;-71
2020/12/01 16:28:09;;;;;;;5.13;0.83;;;10.00;99.90;;;;;;5013453;28;20578;-71
2020/12/01 16:30:37;;;;;;;5.30;0.80;;;9.90;99.90;;;;;;5015286;28;20205;-73
2020/12/01 16:33:04;;;;;;;3.77;0.90;;;9.80;99.90;;;;;;5015282;28;20213;-68
2020/12/01 16:35:31;;;;;;;5.33;0.70;;;9.80;99.90;;;;;;5014175;28;20229;-69
2020/12/01 16:38:01;;;;;;;6.00;0.83;;;9.70;99.90;;;;;;5027493;28;20213;-72
2020/12/01 16:40:38;;;;;;;3.90;0.60;;;9.80;99.90;;;;;;5015275;28;20205;-71
2020/12/01 16:43:34;;;;;;;6.03;0.80;;;9.80;99.90;;;;;;5013970;28;20209;-72
2020/12/01 16:46:34;;;;;;;7.00;1.20;;;9.80;99.90;;;;;;5014234;28;20444;-71
2020/12/01 16:49:11;;;;;;;4.43;1.03;;;9.70;99.90;;;;;;5013941;28;20206;-71
2020/12/01 16:51:49;;;;;;;8.90;1.10;;;9.80;99.90;;;;;;5014209;28;20209;-70
2020/12/01 16:54:33;;;;;;;5.93;1.23;;;9.80;99.90;;;;;;5014088;28;20240;-71
2020/12/01 16:57:09;;;;;;;6.77;1.00;;;9.80;99.90;;;;;;5013312;28;20209;-71
2020/12/01 16:59:56;;;;;;;5.70;0.97;;;9.90;99.90;;;;;;5013465;28;20287;-71
2020/12/01 17:02:56;;;;;;;6.37;1.17;;;10.00;99.90;;;;;;5030436;28;20212;-70
2020/12/01 17:05:33;;;;;;;5.30;0.70;;;9.80;99.90;;;;;;5013521;28;20218;-71
2020/12/01 17:07:59;;;;;;;3.83;0.70;;;9.80;99.90;;;;;;5022204;28;20652;-70
2020/12/01 17:10:29;;;;;;;9.27;0.90;;;9.70;99.90;;;;;;5013399;28;20680;-71
2020/12/01 17:13:59;;;;;;;12.00;1.40;;;9.70;99.90;;;;;;5018720;28;20557;-69
2020/12/01 17:16:53;;;;;;;9.67;0.80;;;9.70;99.90;;;;;;5020594;28;20209;-69
2020/12/01 17:19:19;;;;;;;6.13;0.90;;;9.70;99.90;;;;;;5012588;28;20213;-69
2020/12/01 17:21:48;;;;;;;2.40;0.90;;;9.70;99.90;;;;;;5020634;28;20599;-71
2020/12/01 17:24:16;;;;;;;4.43;0.73;;;9.70;99.90;;;;;;5019893;28;20236;-71
2020/12/01 17:26:45;;;;;;;7.40;1.43;;;9.70;99.90;;;;;;5022474;28;20691;-70
2020/12/01 17:29:16;;;;;;;7.87;1.40;;;9.70;99.90;;;;;;5021094;28;20237;-70
2020/12/01 17:31:45;;;;;;;7.40;1.53;;;9.70;99.90;;;;;;5020133;28;20209;-69
2020/12/01 17:34:35;;;;;;;7.17;0.90;;;9.80;99.90;;;;;;5020370;28;20711;-69
2020/12/01 17:37:06;;;;;;;7.67;0.90;;;9.80;99.90;;;;;;5010295;28;20260;-70
2020/12/01 17:39:40;;;;;;;12.73;0.90;;;9.80;99.90;;;;;;5012229;28;20202;-69
2020/12/01 17:42:14;;;;;;;3.20;0.80;;;9.90;99.90;;;;;;5012449;28;20198;-69
2020/12/01 17:44:48;;;;;;;11.57;1.37;;;9.90;99.90;;;;;;5021269;28;20212;-69
2020/12/01 17:47:23;;;;;;;5.57;0.70;;;9.90;99.90;;;;;;5017019;28;20232;-69
2020/12/01 17:49:56;;;;;;;7.40;0.90;;;10.00;99.90;;;;;;5014837;28;20267;-69
2020/12/01 17:52:31;;;;;;;8.63;1.20;;;10.00;99.90;;;;;;5021167;28;20197;-69
2020/12/01 17:54:57;;;;;;;4.33;1.00;;;10.00;99.90;;;;;;5020795;28;20220;-69
2020/12/01 17:57:24;;;;;;;4.90;1.00;;;9.90;99.90;;;;;;5018952;28;20212;-69
2020/12/01 17:59:52;;;;;;;6.27;1.30;;;10.00;99.90;;;;;;5021177;28;20198;-69
2020/12/01 18:02:19;;;;;;;6.60;1.23;;;9.90;99.90;;;;;;5020094;28;20201;-70
2020/12/01 18:04:45;;;;;;;9.03;1.60;;;10.00;99.90;;;;;;5016191;28;20221;-70
2020/12/01 18:07:14;;;;;;;7.33;1.43;;;9.90;99.90;;;;;;5019575;28;20230;-70
2020/12/01 18:09:41;;;;;;;6.63;1.13;;;9.70;99.90;;;;;;5012313;28;20201;-70
2020/12/01 18:12:23;;;;;;;4.97;1.40;;;9.70;99.90;;;;;;5012028;28;20204;-70
2020/12/01 18:15:01;;;;;;;6.00;1.33;;;9.70;99.90;;;;;;5018330;28;20232;-71
2020/12/01 18:17:51;;;;;;;4.37;1.10;;;9.60;99.90;;;;;;5012246;28;20206;-70
2020/12/01 18:20:27;;;;;;;8.30;1.20;;;9.60;99.90;;;;;;5011936;28;20198;-70
2020/12/01 18:23:12;;;;;;;6.03;0.90;;;9.60;99.90;;;;;;5012160;28;20197;-70
2020/12/01 18:25:44;;;;;;;4.40;1.00;;;9.60;99.90;;;;;;5012095;28;20566;-70
2020/12/01 18:28:18;;;;;;;7.30;2.10;;;9.60;99.90;;;;;;5011261;28;20664;-69
2020/12/01 18:30:46;;;;;;;5.33;1.17;;;9.60;99.90;;;;;;5016248;28;20209;-69
2020/12/01 18:33:24;;;;;;;10.43;1.27;;;9.60;99.90;;;;;;5012639;28;20210;-69
2020/12/01 18:35:52;;;;;;;5.93;1.40;;;9.70;99.90;;;;;;5011229;28;20767;-69
2020/12/01 18:38:23;;;;;;;7.40;1.50;;;9.60;99.90;;;;;;5012740;28;20216;-70
2020/12/01 18:40:51;;;;;;;4.53;1.00;;;9.60;99.90;;;;;;5012572;28;20656;-69
2020/12/01 18:43:27;;;;;;;7.37;1.13;;;9.60;99.90;;;;;;5012578;28;20229;-69
2020/12/01 18:45:58;;;;;;;6.63;1.10;;;9.60;99.90;;;;;;5013832;28;20228;-69
2020/12/01 18:48:25;;;;;;;7.80;0.87;;;9.60;99.90;;;;;;5012201;28;20216;-69
2020/12/01 18:50:51;;;;;;;10.33;1.70;;;9.60;99.90;;;;;;5011993;28;20668;-69
2020/12/01 18:53:21;;;;;;;8.10;1.30;;;9.50;99.90;;;;;;5012612;28;20213;-69
2020/12/01 18:55:49;;;;;;;9.83;1.20;;;9.60;99.90;;;;;;5011799;28;20558;-69
2020/12/01 18:58:17;;;;;;;7.77;0.97;;;9.60;99.90;;;;;;5011864;28;20633;-69
2020/12/01 19:00:44;;;;;;;4.37;1.03;;;9.50;99.90;;;;;;5011419;28;20561;-69
2020/12/01 19:03:13;;;;;;;3.67;1.10;;;9.50;99.90;;;;;;5010797;28;20206;-69
2020/12/01 19:05:40;;;;;;;7.90;1.17;;;9.50;99.90;;;;;;5015047;28;20229;-70
2020/12/01 19:08:06;;;;;;;3.73;1.20;;;9.50;99.90;;;;;;5015157;28;20215;-69
2020/12/01 19:10:33;;;;;;;7.37;1.10;;;9.40;99.90;;;;;;5026102;28;20201;-69
2020/12/01 19:12:59;;;;;;;1.93;0.90;;;9.40;99.90;;;;;;5024903;28;20201;-70
2020/12/01 19:15:25;;;;;;;4.87;0.90;;;9.20;99.90;;;;;;5024544;28;20588;-69
2020/12/01 19:17:51;;;;;;;5.47;1.23;;;9.20;99.90;;;;;;5022870;28;20487;-69
2020/12/01 19:20:18;;;;;;;3.00;1.10;;;9.30;99.90;;;;;;5028912;28;20209;-69
2020/12/01 19:22:44;;;;;;;8.10;1.33;;;9.30;99.90;;;;;;5027069;28;20209;-70
2020/12/01 19:25:11;;;;;;;3.10;0.93;;;9.30;99.90;;;;;;5013913;28;20588;-71
2020/12/01 19:27:37;;;;;;;3.27;0.97;;;9.30;99.90;;;;;;5018248;28;20672;-70
2020/12/01 19:30:04;;;;;;;9.57;1.73;;;9.30;99.90;;;;;;5025792;28;20212;-70
2020/12/01 19:32:30;;;;;;;16.07;1.53;;;9.30;99.90;;;;;;5027697;28;20208;-69
2020/12/01 19:34:56;;;;;;;6.77;1.33;;;9.20;99.90;;;;;;5024241;28;20406;-71
2020/12/01 19:37:23;;;;;;;6.03;1.00;;;9.30;99.90;;;;;;5014778;28;20209;-71
2020/12/01 19:39:49;;;;;;;6.20;1.33;;;9.20;99.90;;;;;;5012416;28;20585;-71
2020/12/01 19:42:16;;;;;;;7.73;1.10;;;9.40;99.90;;;;;;5013748;28;20213;-72
2020/12/01 19:44:42;;;;;;;3.23;1.23;;;9.40;99.90;;;;;;5011194;28;20230;-72
2020/12/01 19:47:09;;;;;;;7.07;2.23;;;9.30;99.90;;;;;;5015854;28;20229;-72
2020/12/01 19:49:36;;;;;;;5.90;1.10;;;9.40;99.90;;;;;;5010731;28;20233;-72
2020/12/01 19:52:02;;;;;;;7.50;1.77;;;9.40;99.90;;;;;;5010639;28;20217;-69
2020/12/01 19:54:29;;;;;;;4.57;1.20;;;9.40;99.90;;;;;;5013420;28;20220;-69
2020/12/01 19:56:55;;;;;;;11.83;1.57;;;9.40;99.90;;;;;;5012723;28;20746;-69
2020/12/01 19:59:21;;;;;;;5.23;1.50;;;9.40;99.90;;;;;;5010427;28;20218;-69
2020/12/01 20:01:48;;;;;;;9.80;1.97;;;9.40;99.90;;;;;;5022518;28;20311;-69
2020/12/01 20:04:17;;;;;;;3.57;1.23;;;9.50;99.90;;;;;;5019181;28;20224;-69
2020/12/01 20:06:43;;;;;;;4.23;1.70;;;9.50;99.90;;;;;;5015704;28;20295;-69
2020/12/01 20:09:09;;;;;;;10.37;1.60;;;9.50;99.90;;;;;;5012924;28;20640;-69
2020/12/01 20:11:36;;;;;;;5.90;1.37;;;9.50;99.90;;;;;;5018759;28;20201;-69
2020/12/01 20:14:03;;;;;;;5.47;1.37;;;9.50;99.90;;;;;;5022322;28;20221;-69
2020/12/01 20:16:30;;;;;;;3.70;1.40;;;9.50;99.90;;;;;;5013791;28;20206;-69
2020/12/01 20:18:57;;;;;;;4.80;1.60;;;9.50;99.90;;;;;;5013250;28;20210;-69
2020/12/01 20:21:23;;;;;;;7.53;1.40;;;9.60;99.90;;;;;;5011329;28;20554;-70
2020/12/01 20:23:50;;;;;;;8.20;2.00;;;9.50;99.90;;;;;;5011455;28;20221;-69
2020/12/01 20:26:18;;;;;;;6.27;1.47;;;9.50;99.90;;;;;;5017775;28;20236;-69
2020/12/01 20:28:46;;;;;;;7.73;1.40;;;9.50;99.90;;;;;;5018816;28;20213;-69
2020/12/01 20:31:12;;;;;;;3.77;1.70;;;9.40;99.90;;;;;;5015226;28;20213;-70
2020/12/01 20:33:39;;;;;;;7.63;2.50;;;9.50;99.90;;;;;;5010008;28;20237;-69
2020/12/01 20:36:50;;;;;;;6.30;1.90;;;9.50;99.90;;;;;;5010881;28;20202;-69
2020/12/01 20:39:56;;;;;;;7.83;1.77;;;9.30;99.90;;;;;;5013619;28;20213;-69
2020/12/01 20:42:25;;;;;;;5.77;1.93;;;9.30;99.90;;;;;;5014727;28;20229;-69
2020/12/01 20:44:53;;;;;;;10.87;1.90;;;9.30;99.90;;;;;;5019038;28;20232;-69
2020/12/01 20:47:20;;;;;;;6.63;2.10;;;9.20;99.90;;;;;;5019476;28;20692;-70
2020/12/01 20:49:47;;;;;;;3.93;1.93;;;9.10;99.90;;;;;;5019559;28;20198;-69
2020/12/01 20:52:14;;;;;;;5.83;2.00;;;9.10;99.90;;;;;;5012149;28;20213;-69
2020/12/01 20:54:40;;;;;;;6.23;2.13;;;9.10;99.90;;;;;;5022387;28;20228;-69
2020/12/01 20:57:07;;;;;;;5.83;1.80;;;9.10;99.90;;;;;;5017189;28;20297;-70
2020/12/01 20:59:34;;;;;;;5.90;1.50;;;9.10;99.90;;;;;;5017171;28;20214;-69
2020/12/01 21:02:01;;;;;;;4.40;1.90;;;9.10;99.90;;;;;;5015584;28;20687;-69
2020/12/01 21:04:28;;;;;;;4.27;1.80;;;9.10;99.90;;;;;;5014786;28;20611;-69
2020/12/01 21:06:55;;;;;;;9.13;2.10;;;9.10;99.90;;;;;;5022628;28;20225;-70
2020/12/01 21:09:23;;;;;;;8.07;2.20;;;9.10;99.90;;;;;;5020121;28;20582;-69
2020/12/01 21:11:56;;;;;;;5.57;1.70;;;9.10;99.90;;;;;;5017203;28;20844;-69
2020/12/01 21:14:26;;;;;;;4.43;1.83;;;9.00;99.90;;;;;;5022438;28;20217;-69
2020/12/01 21:16:58;;;;;;;8.17;2.03;;;9.10;99.90;;;;;;5026295;28;20208;-70
2020/12/01 21:19:27;;;;;;;4.57;1.97;;;9.10;99.90;;;;;;5019102;28;20295;-69
2020/12/01 21:22:03;;;;;;;3.57;1.97;;;9.10;99.90;;;;;;5016257;28;20210;-69
2020/12/01 21:24:29;;;;;;;4.67;2.27;;;9.20;99.90;;;;;;5021535;28;20587;-69
2020/12/01 21:27:01;;;;;;;6.20;1.80;;;9.20;99.90;;;;;;5022106;28;20230;-70
2020/12/01 21:29:33;;;;;;;4.80;1.60;;;9.30;99.90;;;;;;5020839;28;20695;-69
2020/12/01 21:32:05;;;;;;;4.10;1.83;;;9.30;99.90;;;;;;5014858;28;20691;-69
2020/12/01 21:34:42;;;;;;;6.30;2.30;;;9.30;99.90;;;;;;5019933;28;20678;-69
2020/12/01 21:37:10;;;;;;;5.93;2.10;;;9.30;99.90;;;;;;5018262;28;20202;-69
2020/12/01 21:39:37;;;;;;;6.50;2.50;;;9.20;99.90;;;;;;5024373;28;20205;-69
2020/12/01 21:42:12;;;;;;;8.00;2.37;;;9.10;99.90;;;;;;5014250;28;20209;-69
2020/12/01 21:44:44;;;;;;;5.47;3.10;;;9.00;99.90;;;;;;5019547;28;20229;-69
2020/12/01 21:47:14;;;;;;;8.53;2.17;;;9.10;99.90;;;;;;5017994;28;20235;-69
2020/12/01 21:49:43;;;;;;;6.53;2.97;;;9.10;99.90;;;;;;5028101;28;20220;-69
2020/12/01 21:52:44;;;;;;;8.17;2.77;;;9.00;99.90;;;;;;5014484;28;20202;-69
2020/12/01 21:55:26;;;;;;;5.17;3.00;;;9.10;99.90;;;;;;5016003;28;20533;-70
2020/12/01 21:58:11;;;;;;;5.67;2.73;;;9.10;99.90;;;;;;5023240;28;20216;-70
2020/12/01 22:00:47;;;;;;;8.43;3.03;;;9.10;99.90;;;;;;5026502;28;20205;-69
2020/12/01 22:03:37;;;;;;;6.37;3.00;;;9.20;99.90;;;;;;5021395;28;20205;-69
2020/12/01 22:06:26;;;;;;;7.13;2.73;;;9.20;99.90;;;;;;5011669;28;20220;-70
2020/12/01 22:09:03;;;;;;;6.33;3.30;;;9.20;99.90;;;;;;5026437;28;20213;-72
2020/12/01 22:11:36;;;;;;;5.13;2.77;;;9.20;99.90;;;;;;5016437;28;20204;-71
2020/12/01 22:14:10;;;;;;;7.13;3.63;;;9.20;99.90;;;;;;5032283;28;20221;-73
2020/12/01 22:16:39;;;;;;;5.90;2.93;;;9.20;99.90;;;;;;5013296;28;20216;-72
2020/12/01 22:19:10;;;;;;;8.40;3.10;;;9.30;99.90;;;;;;5012998;28;20205;-71
2020/12/01 22:22:06;;;;;;;7.73;3.10;;;9.30;99.90;;;;;;5032677;28;20205;-71
2020/12/01 22:25:06;;;;;;;5.67;3.17;;;9.30;99.90;;;;;;5032692;28;20225;-70
2020/12/01 22:28:10;;;;;;;6.93;3.43;;;9.30;99.90;;;;;;5020305;28;20746;-70
2020/12/01 22:30:41;;;;;;;6.30;2.70;;;9.30;99.90;;;;;;5013426;28;20225;-70
2020/12/01 22:33:39;;;;;;;5.20;3.10;;;9.20;99.90;;;;;;5012992;28;20202;-71
2020/12/01 22:36:11;;;;;;;6.57;3.43;;;9.20;99.90;;;;;;5013069;28;20205;-69
2020/12/01 22:38:40;;;;;;;5.23;3.33;;;9.20;99.90;;;;;;5012421;28;20220;-70
